DuBois Regional Airport
KDUJ : now visible

Airfield :











YOU CAN JOIN US ON...

 
LOGIN :

Register | Disclaimer

   EN    FR    IT 

 









Legend :    VFR   Marginal VFR   IFR   Intensive IFR   Very Intensive IFR
Visi :
Ceiling :
>= 8 km
>= 3000ft
5 to 8 km
1000 to 3000 ft
1500m to 5 km
500 to 1000 ft
800 to 1500m
200 to 500 ft
< 800m
< 200 ft
Symbols :   Thunderstorms  Fog  Heavy snow  Heavy precipitations  Wind > 20 kt






- Airport Elevation : 1817 ft
- IATA code : DUJ


KDUJ - DuBois Regional

CURRENT METAR :
  • 282226Z AUTO 28005KT 1 1/4SM -SN BR SCT007 OVC013 M01/M03 A2992 RMK AO2 SNB2156 P0001 T10111033

EXPIRED METARs :
  • 282207Z AUTO 31006KT 1/2SM -SN FZFG OVC008 M01/M03 A2992 RMK AO2 SNB2156 P0000 T10111033
  • 282158Z AUTO 33005KT 1 1/2SM -SN OVC010 M01/M04 A2991 RMK AO2 SNB56 P0000 T10111039
  • 282153Z AUTO 30007KT 6SM HZ OVC012 M01/M04 A2991 RMK AO2 SLP147 T10061039
  • 282125Z AUTO 29008KT 10SM BKN014 OVC021 M01/M04 A2990 RMK AO2 T10061039
  • 282053Z AUTO 29009KT 10SM BKN017 OVC023 M01/M04 A2989 RMK AO2 SLP141 60000 T10061039 53003
  • 282044Z AUTO 30007KT 10SM SCT013 OVC022 M01/M04 A2989 RMK AO2 T10061044
  • 282018Z AUTO 29009KT 10SM OVC013 M01/M04 A2989 RMK AO2 T10061044
  • 281953Z AUTO 31008KT 4SM HZ FEW011 OVC017 M01/M04 A2988 RMK AO2 SNB13E22 SLP136 P0000 T10061039

TAF KDUJ
Valid from the 28 at 18:00 until the 29 at 18:00 UTC


281724Z 2818/2918 29010KT P6SM VCSH OVC015
FM282300 30006KT P6SM OVC018
FM291700 32003KT P6SM SCT035



MET'MAP, your aeronautical weather chart ! - Copyright ORBIFLY December 2007 - Disclaimer

ORBIFLY MET'MAP TEAM :

Programming & Development : Alexandra Zaïnal
Concept & original design : Baudouin d'Aumeries
Assistance for programming : Marc-Olivier Méhu
Technical & hardware support : Manuel Goepfert

Contact : metmap@orbifly.com




SOURCES & CREDITS :

   NOAA       Earth
Advisory